Aeroporto :







RITROVATECI SU...

 
LOGIN :

Iscrizione | Disclaimer

   EN    FR    IT 

 









Sommario :    VFR   VFR Marginale   IFR   IFR Intensivo   IFR Molto Intensivo
Visibilità : 
Base nubi : 
>= 8 km
>= 3000ft
5 / 8 km
1000 / 3000 ft
1500m / 5 km
500 / 1000 ft
800 / 1500m
200 / 500 ft
< 800m
< 200 ft
Simboli :   Temporali  Nebbia  Neve Forte  Precipitazioni Forti  Vento > 20 kt






- Altitudine del aeroporto : 565 ft
- Codice IATA : STI


MDST - Cibao Int.

ULTIMO METAR :
  • 011300Z 11005KT 050V150 9999 FEW024 SCT300 26/22 Q1017

METARs OBSOLETI :
  • 011200Z 00000KT 9999 FEW020 BKN300 24/23 Q1017

TAF TAF MDST
Valido dal 01 a 12 ore il 02 a 12 ore UTC


011000 0112/0212 13012KT 9999 SCT023
PROB30 0119/0201 6000 -TSRA FEW012CB BKN014
BECMG 0121/0123 04015KT
FIR MDCS / America del Nord



MetMap, La meteo Aeronautica in un colpo d'occhio ! - Copyright ORBIFLY Dicembre 2007 - Disclaimer

ORBIFLY MET'MAP TEAM :

Programmazione e sviluppo : Alexandra Zaïnal
Concezione : Baudouin d'Aumeries
Aiuto per la programmazione : Marc-Olivier Méhu
Supporto tecnico e logistico : Manuel Goepfert
Aiuto per la traduzione : Arnaldo La Scala

Contatto : metmap@orbifly.com




FONTI E CREDITI :

   NOAA